createdAt,value
2019-02-05T00:02:12.732Z,77.10
2019-02-05T00:04:46.613Z,77.20
2019-02-05T00:07:18.751Z,77.30
2019-02-05T00:09:51.667Z,77.40
2019-02-05T00:12:24.790Z,77.10
2019-02-05T00:14:57.473Z,77.30
2019-02-05T00:17:29.472Z,77.00
2019-02-05T00:20:02.978Z,76.70
2019-02-05T00:22:35.651Z,76.60
2019-02-05T00:25:08.814Z,76.70
2019-02-05T00:27:40.571Z,77.00
2019-02-05T00:30:13.091Z,77.10
2019-02-05T00:32:46.571Z,77.40
2019-02-05T00:35:20.094Z,77.60
2019-02-05T00:37:52.290Z,77.20
2019-02-05T00:40:24.498Z,77.20
2019-02-05T00:42:57.133Z,77.30
2019-02-05T00:45:30.431Z,77.20
2019-02-05T00:48:03.013Z,77.20
2019-02-05T00:50:34.831Z,76.80
2019-02-05T00:53:07.631Z,76.60
2019-02-05T00:55:39.814Z,76.50
2019-02-05T00:58:13.072Z,76.20
2019-02-05T01:00:46.112Z,76.10
2019-02-05T01:03:18.073Z,76.40
2019-02-05T01:05:51.011Z,76.60
2019-02-05T01:08:24.171Z,76.80
2019-02-05T01:10:57.472Z,77.00
2019-02-05T01:13:29.892Z,77.50
2019-02-05T01:16:03.313Z,77.50
2019-02-05T01:18:35.811Z,76.70
2019-02-05T01:21:08.771Z,76.80
2019-02-05T01:23:41.952Z,77.50
2019-02-05T01:26:14.191Z,77.70
2019-02-05T01:28:50.862Z,77.90
2019-02-05T01:31:23.608Z,77.90
2019-02-05T01:33:56.070Z,78.30
2019-02-05T01:36:28.491Z,77.50
2019-02-05T01:39:00.995Z,77.00
2019-02-05T01:41:34.552Z,76.70
2019-02-05T01:44:07.067Z,76.90
2019-02-05T01:46:39.386Z,77.30
2019-02-05T01:49:12.565Z,76.90
2019-02-05T01:51:44.667Z,76.70
2019-02-05T01:54:17.566Z,77.10
2019-02-05T01:56:50.086Z,77.40
2019-02-05T01:59:23.387Z,76.70
2019-02-05T02:01:55.511Z,76.70
2019-02-05T02:04:27.766Z,76.20
2019-02-05T02:07:00.346Z,76.70
2019-02-05T02:09:32.607Z,76.70
2019-02-05T02:12:05.725Z,76.70
2019-02-05T02:14:39.326Z,76.60
2019-02-05T02:17:12.966Z,76.90
2019-02-05T02:19:46.026Z,77.20
2019-02-05T02:22:18.746Z,77.30
2019-02-05T02:24:51.506Z,76.60
2019-02-05T02:27:23.766Z,76.30
2019-02-05T02:29:56.865Z,76.40
2019-02-05T02:32:29.649Z,76.20
2019-02-05T02:35:02.546Z,76.80
2019-02-05T02:37:35.379Z,77.20
2019-02-05T02:40:08.947Z,76.70
2019-02-05T02:42:41.787Z,77.00
2019-02-05T02:45:15.166Z,77.30
2019-02-05T02:47:48.446Z,76.40
2019-02-05T02:50:21.955Z,76.60
2019-02-05T02:52:55.007Z,77.10
2019-02-05T02:55:27.268Z,76.90
2019-02-05T02:58:00.086Z,77.20
2019-02-05T03:00:32.538Z,77.10
2019-02-05T03:03:04.726Z,77.00
2019-02-05T03:05:38.335Z,76.70
2019-02-05T03:08:11.425Z,76.50
2019-02-05T03:10:43.809Z,76.60
2019-02-05T03:13:16.407Z,76.20
2019-02-05T03:15:48.906Z,76.30
2019-02-05T03:18:21.466Z,75.90
2019-02-05T03:20:53.690Z,76.10
2019-02-05T03:23:26.625Z,76.30
2019-02-05T03:25:58.930Z,76.00
2019-02-05T03:28:31.972Z,76.10
2019-02-05T03:31:04.778Z,75.80
2019-02-05T03:33:38.877Z,76.50
2019-02-05T03:36:12.328Z,76.60
2019-02-05T03:38:44.986Z,76.30
2019-02-05T03:41:17.468Z,76.10
2019-02-05T03:43:50.806Z,76.70
2019-02-05T03:46:23.206Z,76.60
2019-02-05T03:48:56.946Z,76.60
2019-02-05T03:52:05.706Z,76.50
2019-02-05T03:55:22.005Z,76.50
2019-02-05T03:58:16.286Z,76.50
2019-02-05T04:01:40.907Z,75.70
2019-02-05T04:05:07.785Z,75.50
2019-02-05T04:08:04.667Z,75.70
2019-02-05T04:11:21.006Z,75.40
2019-02-05T04:14:41.465Z,75.40
2019-02-05T04:17:55.247Z,75.80
2019-02-05T04:21:09.048Z,75.90
2019-02-05T04:24:16.066Z,75.80
2019-02-05T04:27:23.066Z,75.60
2019-02-05T04:30:06.907Z,75.80
2019-02-05T04:33:06.885Z,75.10
2019-02-05T04:36:10.966Z,75.80
2019-02-05T04:39:32.985Z,75.80
2019-02-05T04:42:45.447Z,76.50
2019-02-05T04:45:54.906Z,77.50
2019-02-05T04:49:09.987Z,78.40
2019-02-05T04:52:05.306Z,79.20
2019-02-05T04:55:00.393Z,79.50
2019-02-05T04:58:13.868Z,79.60
2019-02-05T05:01:24.425Z,79.60
2019-02-05T05:04:47.926Z,78.50
2019-02-05T05:07:47.687Z,78.00
2019-02-05T05:10:19.746Z,78.10
2019-02-05T05:12:52.208Z,77.70
2019-02-05T05:15:25.265Z,76.90
2019-02-05T05:17:58.247Z,76.20
2019-02-05T05:20:31.845Z,75.00
2019-02-05T05:23:04.726Z,74.30
2019-02-05T05:25:37.789Z,74.00
2019-02-05T05:28:10.751Z,73.50
2019-02-05T05:30:43.705Z,73.10
2019-02-05T05:33:17.306Z,72.80
2019-02-05T05:35:51.409Z,73.00
2019-02-05T05:38:24.727Z,73.50
2019-02-05T05:40:56.346Z,73.30
2019-02-05T05:43:29.305Z,73.60
2019-02-05T05:46:02.207Z,73.60
2019-02-05T05:48:34.726Z,74.00
2019-02-05T05:51:06.986Z,74.20
2019-02-05T05:53:39.918Z,75.00
2019-02-05T05:56:12.127Z,75.50
2019-02-05T05:58:44.727Z,75.70
2019-02-05T06:01:17.146Z,75.90
2019-02-05T06:03:49.690Z,75.80
2019-02-05T06:06:22.386Z,75.70
2019-02-05T06:08:54.906Z,75.90
2019-02-05T06:11:27.389Z,76.20
2019-02-05T06:14:00.186Z,76.90
2019-02-05T06:16:33.086Z,76.30
2019-02-05T06:19:06.926Z,76.70
2019-02-05T06:21:39.826Z,76.70
2019-02-05T06:24:12.006Z,76.80
2019-02-05T06:26:44.307Z,75.50
2019-02-05T06:29:16.447Z,75.70
2019-02-05T06:31:49.166Z,74.90
2019-02-05T06:34:22.368Z,75.50
2019-02-05T06:36:55.552Z,74.90
2019-02-05T06:39:28.251Z,73.60
2019-02-05T06:42:00.927Z,74.30
2019-02-05T06:44:33.887Z,73.80
2019-02-05T06:47:07.326Z,73.90
2019-02-05T06:49:39.966Z,73.30
2019-02-05T06:52:12.186Z,73.90
2019-02-05T06:54:45.205Z,74.30
2019-02-05T06:57:18.304Z,74.80
2019-02-05T06:59:51.244Z,75.10
2019-02-05T07:02:23.645Z,74.50
2019-02-05T07:04:56.505Z,74.70
2019-02-05T07:07:29.565Z,74.70
2019-02-05T07:10:02.904Z,74.70
2019-02-05T07:12:35.104Z,75.10
2019-02-05T07:15:08.345Z,74.70
2019-02-05T07:17:49.191Z,74.90
2019-02-05T07:20:16.385Z,75.10
2019-02-05T07:22:50.026Z,74.40
2019-02-05T07:25:22.467Z,74.40
2019-02-05T07:27:56.125Z,75.10
2019-02-05T07:30:29.404Z,75.30
2019-02-05T07:33:03.007Z,74.60
2019-02-05T07:35:34.965Z,74.50
2019-02-05T07:38:07.346Z,74.00
2019-02-05T07:40:40.485Z,74.20
2019-02-05T07:43:12.725Z,74.70
2019-02-05T07:45:45.569Z,74.40
2019-02-05T07:48:18.764Z,74.50
2019-02-05T07:50:52.084Z,74.50
2019-02-05T07:53:24.765Z,74.90
2019-02-05T07:55:57.526Z,74.50
2019-02-05T07:58:30.304Z,74.40
2019-02-05T08:01:02.900Z,73.80
2019-02-05T08:03:36.266Z,73.90
2019-02-05T08:06:08.885Z,73.40
2019-02-05T08:08:42.025Z,74.00
2019-02-05T08:11:15.805Z,73.40
2019-02-05T08:13:48.865Z,73.60
2019-02-05T08:16:21.726Z,74.30
2019-02-05T08:18:54.526Z,73.90
2019-02-05T08:21:27.066Z,73.90
2019-02-05T08:23:58.887Z,73.60
2019-02-05T08:26:31.645Z,73.50
2019-02-05T08:29:05.124Z,73.80
2019-02-05T08:31:38.686Z,74.10
2019-02-05T08:34:11.066Z,74.70
2019-02-05T08:36:43.365Z,74.50
2019-02-05T08:39:17.969Z,74.30
2019-02-05T08:41:50.767Z,74.60
2019-02-05T08:44:23.384Z,74.70
2019-02-05T08:46:56.178Z,75.10
2019-02-05T08:49:29.285Z,76.50
2019-02-05T08:52:02.103Z,75.30
2019-02-05T08:54:34.246Z,75.10
2019-02-05T08:57:07.444Z,74.40
2019-02-05T08:59:40.264Z,73.00
2019-02-05T09:02:12.945Z,73.90
2019-02-05T09:04:45.403Z,73.70
2019-02-05T09:07:18.449Z,73.60
2019-02-05T09:09:50.705Z,73.30
2019-02-05T09:12:24.299Z,73.40
2019-02-05T09:14:57.093Z,72.90
2019-02-05T09:17:29.414Z,73.20
2019-02-05T09:20:02.455Z,73.40
2019-02-05T09:22:35.636Z,73.60
2019-02-05T09:25:07.903Z,73.40
2019-02-05T09:27:40.600Z,73.10
2019-02-05T09:30:18.110Z,73.70
2019-02-05T09:32:51.306Z,74.20
2019-02-05T09:35:23.611Z,73.70
2019-02-05T09:37:57.849Z,73.80
2019-02-05T09:40:32.579Z,73.20
2019-02-05T09:43:04.993Z,74.00
2019-02-05T09:45:38.531Z,73.50
2019-02-05T09:48:12.311Z,74.10
2019-02-05T09:50:45.307Z,75.00
2019-02-05T09:53:18.071Z,73.90
2019-02-05T09:55:50.894Z,73.10
2019-02-05T09:58:24.191Z,73.60
2019-02-05T10:00:59.601Z,73.30
2019-02-05T10:03:30.671Z,73.70
2019-02-05T10:06:03.751Z,74.50
2019-02-05T10:08:34.991Z,73.60
2019-02-05T10:11:08.171Z,72.80
2019-02-05T10:13:40.991Z,73.10
2019-02-05T10:16:14.573Z,73.30
2019-02-05T10:18:46.873Z,73.20
2019-02-05T10:21:19.875Z,73.20
2019-02-05T10:23:53.058Z,72.70
2019-02-05T10:26:26.411Z,72.60
2019-02-05T10:28:59.571Z,71.80
2019-02-05T10:31:32.791Z,71.00
2019-02-05T10:34:05.312Z,71.50
2019-02-05T10:36:38.651Z,72.20
2019-02-05T10:39:13.492Z,71.40
2019-02-05T10:41:46.210Z,69.60
2019-02-05T10:44:18.930Z,69.00
2019-02-05T10:46:51.951Z,68.60
2019-02-05T10:49:24.994Z,68.10
2019-02-05T10:51:57.411Z,67.60
2019-02-05T10:54:29.871Z,68.60
2019-02-05T10:57:03.331Z,67.00
2019-02-05T10:59:36.071Z,65.70
2019-02-05T11:02:08.732Z,64.80
2019-02-05T11:04:41.891Z,64.80
2019-02-05T11:07:14.351Z,62.80
2019-02-05T11:09:47.653Z,62.50
2019-02-05T11:12:20.495Z,63.80
2019-02-05T11:14:53.451Z,64.80
2019-02-05T11:17:27.332Z,62.40
2019-02-05T11:20:00.031Z,63.40
2019-02-05T11:22:32.372Z,63.00
2019-02-05T11:25:05.274Z,62.60
2019-02-05T11:27:38.210Z,63.00
2019-02-05T11:30:20.425Z,61.70
2019-02-05T11:32:53.091Z,62.40
2019-02-05T11:35:25.713Z,60.60
2019-02-05T11:37:58.713Z,60.00
2019-02-05T11:40:33.783Z,58.20
2019-02-05T11:43:06.272Z,58.20
2019-02-05T11:45:38.534Z,57.70
2019-02-05T11:48:14.995Z,59.10
2019-02-05T11:50:46.996Z,59.30
2019-02-05T11:53:20.335Z,58.20
2019-02-05T11:55:52.676Z,58.00
2019-02-05T11:58:25.314Z,57.60
2019-02-05T12:01:05.896Z,57.30
2019-02-05T12:03:38.537Z,56.40
2019-02-05T12:06:11.656Z,56.10
2019-02-05T12:08:45.356Z,55.30
2019-02-05T12:11:18.175Z,55.70
2019-02-05T12:13:51.296Z,54.20
2019-02-05T12:16:24.719Z,54.00
2019-02-05T12:18:56.835Z,54.40
2019-02-05T12:21:29.795Z,53.70
2019-02-05T12:24:02.115Z,54.60
2019-02-05T12:26:35.164Z,55.40
2019-02-05T12:29:08.207Z,56.00
2019-02-05T12:31:40.841Z,56.70
2019-02-05T12:34:14.740Z,57.90
2019-02-05T12:36:47.801Z,58.00
2019-02-05T12:39:23.000Z,59.20
2019-02-05T12:41:55.821Z,60.00
2019-02-05T12:44:28.660Z,60.60
2019-02-05T12:47:01.020Z,60.80
2019-02-05T12:49:34.062Z,60.70
2019-02-05T12:52:07.921Z,61.70
2019-02-05T12:54:40.980Z,61.90
2019-02-05T12:57:13.298Z,63.00
2019-02-05T12:59:45.660Z,62.30
2019-02-05T13:02:18.978Z,62.90
2019-02-05T13:04:51.779Z,62.90
2019-02-05T13:07:24.483Z,64.00
2019-02-05T13:09:57.421Z,62.80
2019-02-05T13:12:30.339Z,62.80
2019-02-05T13:15:03.919Z,64.00
2019-02-05T13:17:36.079Z,64.60
2019-02-05T13:20:10.939Z,63.80
2019-02-05T13:22:42.541Z,64.70
2019-02-05T13:25:18.060Z,65.30
2019-02-05T13:27:51.389Z,64.60
2019-02-05T13:30:25.540Z,65.10
2019-02-05T13:32:58.460Z,64.90
2019-02-05T13:35:31.819Z,65.50
2019-02-05T13:38:04.566Z,65.90
2019-02-05T13:40:37.639Z,66.40
2019-02-05T13:43:10.960Z,65.50
2019-02-05T13:45:44.300Z,65.50
2019-02-05T13:48:17.346Z,65.60
2019-02-05T13:50:50.262Z,65.50
2019-02-05T13:53:23.084Z,65.90
2019-02-05T13:55:55.504Z,65.80
2019-02-05T13:58:28.199Z,65.60
2019-02-05T14:01:01.286Z,66.30
2019-02-05T14:03:33.859Z,67.40
2019-02-05T14:06:06.300Z,67.60
2019-02-05T14:08:39.040Z,66.30
2019-02-05T14:11:12.079Z,66.40
2019-02-05T14:13:44.480Z,67.30
2019-02-05T14:16:18.021Z,67.90
2019-02-05T14:18:55.266Z,67.10
2019-02-05T14:21:25.600Z,67.40
2019-02-05T14:23:58.919Z,67.90
2019-02-05T14:26:31.920Z,68.10
2019-02-05T14:29:04.094Z,69.00
2019-02-05T14:31:36.960Z,70.10
2019-02-05T14:34:09.681Z,69.50
2019-02-05T14:36:42.683Z,70.10
2019-02-05T14:39:14.680Z,70.40
2019-02-05T14:41:47.707Z,71.00
2019-02-05T14:44:20.919Z,70.90
2019-02-05T14:46:53.582Z,71.30
2019-02-05T14:49:26.000Z,70.80
2019-02-05T14:51:58.215Z,71.30
2019-02-05T14:54:31.202Z,71.90
2019-02-05T14:57:06.305Z,70.80
2019-02-05T14:59:37.615Z,71.00
2019-02-05T15:02:10.093Z,71.50
2019-02-05T15:04:43.157Z,72.10
2019-02-05T15:07:15.629Z,71.00
2019-02-05T15:09:48.888Z,71.20
2019-02-05T15:12:21.632Z,71.70
2019-02-05T15:14:54.216Z,71.40
2019-02-05T15:17:26.077Z,71.00
2019-02-05T15:19:59.137Z,71.70
2019-02-05T15:22:32.476Z,72.00
2019-02-05T15:25:05.098Z,71.40
2019-02-05T15:27:36.856Z,71.70
2019-02-05T15:30:12.606Z,71.90
2019-02-05T15:33:03.742Z,72.60
2019-02-05T15:35:38.083Z,72.70
2019-02-05T15:38:10.963Z,73.20
2019-02-05T15:40:42.923Z,73.00
2019-02-05T15:43:15.642Z,72.80
2019-02-05T15:45:48.463Z,73.10
2019-02-05T15:48:21.103Z,73.40
2019-02-05T15:50:53.743Z,73.50
2019-02-05T15:53:27.183Z,73.30
2019-02-05T15:55:59.522Z,73.40
2019-02-05T15:58:32.205Z,73.80
2019-02-05T16:01:04.524Z,73.80
2019-02-05T16:03:37.181Z,73.80
2019-02-05T16:06:09.803Z,73.10
2019-02-05T16:08:42.444Z,73.30
2019-02-05T16:11:14.998Z,73.80
2019-02-05T16:13:47.383Z,73.90
2019-02-05T16:16:21.164Z,74.00
2019-02-05T16:18:54.045Z,73.60
2019-02-05T16:21:26.490Z,74.20
2019-02-05T16:23:59.704Z,73.90
2019-02-05T16:26:31.823Z,74.40
2019-02-05T16:29:06.146Z,74.00
2019-02-05T16:31:39.024Z,74.10
2019-02-05T16:34:11.766Z,74.40
2019-02-05T16:36:43.584Z,74.80
2019-02-05T16:39:15.417Z,74.60
2019-02-05T16:41:48.216Z,74.60
2019-02-05T16:44:20.915Z,74.80
2019-02-05T16:46:53.877Z,75.50
2019-02-05T16:49:25.858Z,75.00
2019-02-05T16:51:59.336Z,75.20
2019-02-05T16:54:31.976Z,74.50
2019-02-05T16:57:05.485Z,74.90
2019-02-05T16:59:37.578Z,74.60
2019-02-05T17:02:10.936Z,75.00
2019-02-05T17:04:43.995Z,74.80
2019-02-05T17:07:17.316Z,75.40
2019-02-05T17:09:50.175Z,75.70
2019-02-05T17:12:22.859Z,75.20
2019-02-05T17:14:56.196Z,75.10
2019-02-05T17:17:29.396Z,75.00
2019-02-05T17:20:02.535Z,75.00
2019-02-05T17:22:35.357Z,75.70
2019-02-05T17:25:08.916Z,75.50
2019-02-05T17:27:41.576Z,75.50
2019-02-05T17:30:16.816Z,75.20
2019-02-05T17:32:49.355Z,75.10
2019-02-05T17:35:22.117Z,75.10
2019-02-05T17:37:54.456Z,75.50
2019-02-05T17:40:27.679Z,75.60
2019-02-05T17:43:00.835Z,75.80
2019-02-05T17:45:34.255Z,75.60
2019-02-05T17:48:10.296Z,75.80
2019-02-05T17:50:42.415Z,75.90
2019-02-05T17:53:14.821Z,76.20
2019-02-05T17:55:47.495Z,76.10
2019-02-05T17:58:20.135Z,76.00
2019-02-05T18:01:00.978Z,76.30
2019-02-05T18:03:33.237Z,76.40
2019-02-05T18:06:06.697Z,76.50
2019-02-05T18:08:39.475Z,76.60
2019-02-05T18:11:12.763Z,76.70
2019-02-05T18:13:45.577Z,77.00
2019-02-05T18:16:19.375Z,77.10
2019-02-05T18:18:51.175Z,77.00
2019-02-05T18:21:23.575Z,77.00
2019-02-05T18:23:56.237Z,76.90
2019-02-05T18:26:28.316Z,77.20
2019-02-05T18:29:01.837Z,77.20
2019-02-05T18:31:35.196Z,77.20
2019-02-05T18:34:08.262Z,77.40
2019-02-05T18:36:41.115Z,77.50
2019-02-05T18:39:14.097Z,77.50
2019-02-05T18:41:47.115Z,77.30
2019-02-05T18:44:20.135Z,77.60
2019-02-05T18:46:53.435Z,77.20
2019-02-05T18:49:25.614Z,77.70
2019-02-05T18:51:58.776Z,77.40
2019-02-05T18:54:31.660Z,77.70
2019-02-05T18:57:04.315Z,77.20
2019-02-05T18:59:36.815Z,77.30
2019-02-05T19:02:09.476Z,77.70
2019-02-05T19:04:42.251Z,78.10
2019-02-05T19:07:14.536Z,77.90
2019-02-05T19:09:47.796Z,77.50
2019-02-05T19:12:20.495Z,77.40
2019-02-05T19:14:56.501Z,77.60
2019-02-05T19:17:28.977Z,77.60
2019-02-05T19:20:01.456Z,78.20
2019-02-05T19:22:34.936Z,77.30
2019-02-05T19:25:30.018Z,77.10
2019-02-05T19:28:02.456Z,77.20
2019-02-05T19:30:36.777Z,77.20
2019-02-05T19:33:09.096Z,77.30
2019-02-05T19:35:42.697Z,77.20
2019-02-05T19:38:16.237Z,78.10
2019-02-05T19:40:57.106Z,77.50
2019-02-05T19:43:23.695Z,77.30
2019-02-05T19:46:30.388Z,77.30
2019-02-05T19:49:21.435Z,77.20
2019-02-05T19:51:48.876Z,77.30
2019-02-05T19:54:22.256Z,76.80
2019-02-05T19:56:54.616Z,76.50
2019-02-05T19:59:28.296Z,76.30
2019-02-05T20:02:00.651Z,76.70
2019-02-05T20:04:33.296Z,76.20
2019-02-05T20:07:05.801Z,76.40
2019-02-05T20:09:39.115Z,76.50
2019-02-05T20:12:11.523Z,76.40
2019-02-05T20:14:44.178Z,76.30
2019-02-05T20:17:16.856Z,76.30
2019-02-05T20:19:49.159Z,76.40
2019-02-05T20:22:21.896Z,76.00
2019-02-05T20:24:55.337Z,76.10
2019-02-05T20:27:28.158Z,76.40
2019-02-05T20:30:01.479Z,76.60
2019-02-05T20:32:34.437Z,76.60
2019-02-05T20:35:07.319Z,76.80
2019-02-05T20:37:39.977Z,76.90
2019-02-05T20:40:15.264Z,77.00
2019-02-05T20:42:47.995Z,77.20
2019-02-05T20:45:20.595Z,76.90
2019-02-05T20:47:56.084Z,76.60
2019-02-05T20:50:28.576Z,76.50
2019-02-05T20:53:13.028Z,76.80
2019-02-05T20:55:36.356Z,76.80
2019-02-05T20:58:09.997Z,76.90
2019-02-05T21:00:42.956Z,76.80
2019-02-05T21:03:16.277Z,76.70
2019-02-05T21:05:47.999Z,77.10
2019-02-05T21:08:20.796Z,77.30
2019-02-05T21:10:52.737Z,77.40
2019-02-05T21:13:24.817Z,77.10
2019-02-05T21:15:58.096Z,78.00
2019-02-05T21:18:31.203Z,78.30
2019-02-05T21:21:03.335Z,78.30
2019-02-05T21:23:38.045Z,77.90
2019-02-05T21:26:10.377Z,77.80
2019-02-05T21:28:43.378Z,77.80
2019-02-05T21:31:16.836Z,78.40
2019-02-05T21:33:49.877Z,78.40
2019-02-05T21:36:22.457Z,78.20
2019-02-05T21:38:55.036Z,77.80
2019-02-05T21:41:28.418Z,78.00
2019-02-05T21:44:01.417Z,78.20
2019-02-05T21:46:33.939Z,78.20
2019-02-05T21:49:06.818Z,78.70
2019-02-05T21:51:41.287Z,78.80
2019-02-05T21:54:13.735Z,78.70
2019-02-05T21:56:46.597Z,79.00
2019-02-05T21:59:19.448Z,79.10
2019-02-05T22:01:53.004Z,79.60
2019-02-05T22:04:28.203Z,79.00
2019-02-05T22:07:01.536Z,79.00
2019-02-05T22:09:34.837Z,79.00
2019-02-05T22:12:07.915Z,79.10
2019-02-05T22:14:40.096Z,78.80
2019-02-05T22:17:13.476Z,78.80
2019-02-05T22:19:46.215Z,78.20
2019-02-05T22:22:19.778Z,77.80
2019-02-05T22:24:53.095Z,77.60
2019-02-05T22:27:27.096Z,77.80
2019-02-05T22:30:01.255Z,78.00
2019-02-05T22:32:34.715Z,78.80
2019-02-05T22:35:08.339Z,78.70
2019-02-05T22:37:41.294Z,78.20
2019-02-05T22:40:14.215Z,76.80
2019-02-05T22:42:46.916Z,76.00
2019-02-05T22:45:20.636Z,76.30
2019-02-05T22:47:53.256Z,76.00
2019-02-05T22:50:27.058Z,76.00
2019-02-05T22:53:00.155Z,75.20
2019-02-05T22:55:33.068Z,75.00
2019-02-05T22:58:05.555Z,75.10
2019-02-05T23:01:05.575Z,75.00
2019-02-05T23:03:44.415Z,75.00
2019-02-05T23:06:37.435Z,75.70
2019-02-05T23:09:28.855Z,74.00
2019-02-05T23:12:22.495Z,73.90
2019-02-05T23:14:58.416Z,73.20
2019-02-05T23:17:31.175Z,73.80
2019-02-05T23:20:03.836Z,73.90
2019-02-05T23:22:37.115Z,72.90
2019-02-05T23:25:10.697Z,73.40
2019-02-05T23:27:44.095Z,73.70
2019-02-05T23:30:23.482Z,73.00
2019-02-05T23:32:56.295Z,73.20
2019-02-05T23:35:32.420Z,73.10
2019-02-05T23:38:04.755Z,73.10
2019-02-05T23:40:37.735Z,73.80
2019-02-05T23:43:10.015Z,74.00
2019-02-05T23:45:42.375Z,73.50
2019-02-05T23:48:14.635Z,73.70
2019-02-05T23:50:47.975Z,74.80
2019-02-05T23:53:20.295Z,74.00
2019-02-05T23:55:53.396Z,74.00
2019-02-05T23:58:26.240Z,74.20
